Time;durP1;ratioP1;P1;durP2;ratioP2;P2;SDS_P1;SDS_P2;PMS_P1;PMS_P2;Temp;Humidity;BMP_temperature;BMP_pressure;BME280_temperature;BME280_humidity;BME280_pressure;Samples;Min_cycle;Max_cycle;Signal;HPM_P1;HPM_P2
2022/04/06 00:00:25;;;;;;;10.57;5.10;;;;;;;2.86;73.41;94542.47;5024471;28;20088;-64
2022/04/06 00:02:50;;;;;;;7.25;5.10;;;;;;;3.19;71.67;94535.75;5024445;28;20802;-63
2022/04/06 00:05:16;;;;;;;6.70;4.75;;;;;;;2.78;73.49;94535.38;5024102;28;20123;-63
2022/04/06 00:07:42;;;;;;;7.35;5.70;;;;;;;3.21;71.38;94531.97;5023671;28;20189;-63
2022/04/06 00:10:08;;;;;;;8.27;5.50;;;;;;;3.17;71.33;94539.34;5024145;28;20102;-65
2022/04/06 00:12:34;;;;;;;7.68;5.60;;;;;;;3.63;69.70;94540.84;5024480;28;20080;-64
2022/04/06 00:14:59;;;;;;;9.05;6.20;;;;;;;3.49;70.07;94534.41;5018247;28;20121;-65
2022/04/06 00:17:25;;;;;;;7.68;5.32;;;;;;;3.38;69.74;94529.41;5016220;28;20637;-65
2022/04/06 00:19:50;;;;;;;6.85;4.50;;;;;;;3.66;68.39;94522.09;5012365;28;20113;-64
2022/04/06 00:22:15;;;;;;;9.50;5.03;;;;;;;3.22;69.04;94535.41;5019279;28;20109;-65
2022/04/06 00:24:41;;;;;;;11.65;4.43;;;;;;;2.87;69.08;94533.63;5005720;28;20075;-63
2022/04/06 00:27:06;;;;;;;8.65;5.25;;;;;;;2.68;68.54;94525.97;5030881;28;20425;-63
2022/04/06 00:29:32;;;;;;;8.98;5.03;;;;;;;2.09;71.88;94528.19;5042839;28;20133;-64
2022/04/06 00:31:57;;;;;;;15.48;5.05;;;;;;;2.58;69.42;94529.50;5044881;28;20116;-63
2022/04/06 00:35:28;;;;;;;9.38;5.00;;;;;;;2.68;69.46;94539.13;5044724;28;20217;-65
2022/04/06 00:37:08;;;;;;;5.80;3.53;;;;;;;2.16;71.01;94527.56;5044792;28;20087;-64
2022/04/06 00:39:33;;;;;;;5.43;3.47;;;;;;;2.28;70.19;94521.09;5003079;28;20114;-64
2022/04/06 00:41:59;;;;;;;11.85;5.45;;;;;;;1.98;70.29;94520.56;5011251;28;20109;-64
2022/04/06 00:44:24;;;;;;;8.90;3.80;;;;;;;1.82;71.24;94527.31;5045084;28;20305;-63
2022/04/06 00:46:49;;;;;;;8.30;4.25;;;;;;;2.13;70.37;94532.16;5043799;28;20559;-64
2022/04/06 00:49:15;;;;;;;9.30;4.80;;;;;;;1.58;71.83;94526.09;5038447;28;20131;-65
2022/04/06 00:51:43;;;;;;;10.70;4.50;;;;;;;1.51;72.71;94527.63;5036759;28;20117;-66
2022/04/06 00:54:08;;;;;;;10.85;4.15;;;;;;;1.85;71.40;94520.94;5044499;28;20128;-64
2022/04/06 00:56:34;;;;;;;7.38;3.78;;;;;;;1.92;71.36;94519.34;5043584;28;20480;-64
2022/04/06 00:58:59;;;;;;;7.90;4.28;;;;;;;2.03;71.31;94518.28;5044283;28;20481;-64
2022/04/06 01:01:25;;;;;;;8.80;4.63;;;;;;;1.88;70.75;94508.31;5043011;28;20616;-65
2022/04/06 01:03:50;;;;;;;6.82;4.28;;;;;;;2.07;70.44;94509.13;5044402;28;20113;-64
2022/04/06 01:06:16;;;;;;;12.93;4.65;;;;;;;1.68;71.80;94504.19;5044118;28;20109;-65
2022/04/06 01:08:41;;;;;;;7.05;4.07;;;;;;;1.92;70.89;94497.50;5041519;28;20815;-62
2022/04/06 01:11:06;;;;;;;9.15;4.53;;;;;;;1.53;70.88;94502.09;5043959;28;20133;-65
2022/04/06 01:13:32;;;;;;;9.15;4.53;;;;;;;2.35;69.11;94495.06;5036052;28;20102;-64
2022/04/06 01:15:57;;;;;;;6.93;3.85;;;;;;;2.48;69.24;94494.63;5001436;28;20842;-64
2022/04/06 01:18:23;;;;;;;9.20;4.90;;;;;;;2.74;68.15;94496.41;4994433;28;20487;-65
2022/04/06 01:20:48;;;;;;;8.73;5.40;;;;;;;2.95;67.65;94493.41;5002731;28;20090;-64
2022/04/06 01:23:14;;;;;;;11.32;5.93;;;;;;;3.71;65.60;94483.94;5002472;28;20113;-64
2022/04/06 01:25:40;;;;;;;10.93;6.10;;;;;;;3.44;66.63;94497.19;4996327;28;20090;-64
2022/04/06 01:28:06;;;;;;;9.23;4.93;;;;;;;4.10;65.31;94490.34;5003352;28;20511;-64
2022/04/06 01:30:32;;;;;;;8.48;5.18;;;;;;;3.80;66.02;94493.47;4999692;28;20360;-65
2022/04/06 01:32:57;;;;;;;7.50;4.55;;;;;;;3.83;66.34;94487.88;5000976;28;20086;-65
2022/04/06 01:35:23;;;;;;;9.95;5.15;;;;;;;3.71;66.32;94489.19;4997565;28;20157;-64
2022/04/06 01:37:49;;;;;;;6.65;4.53;;;;;;;3.52;66.03;94499.88;5002148;28;20157;-65
2022/04/06 01:40:14;;;;;;;13.02;5.50;;;;;;;3.24;65.89;94501.91;4998031;28;20402;-65
2022/04/06 01:42:40;;;;;;;13.75;6.25;;;;;;;3.28;65.15;94490.06;5020867;28;20180;-64
2022/04/06 01:45:06;;;;;;;7.70;4.43;;;;;;;3.26;66.36;94489.38;5025173;28;20928;-63
2022/04/06 01:47:31;;;;;;;9.07;4.72;;;;;;;3.37;65.27;94489.09;5000882;28;20102;-64
2022/04/06 01:52:40;;;;;;;13.35;4.82;;;;;;;3.26;63.87;94481.50;5004424;28;20181;-63
2022/04/06 01:55:07;;;;;;;8.63;4.60;;;;;;;3.59;63.64;94489.50;5003797;28;20482;-65
2022/04/06 01:57:33;;;;;;;9.43;4.00;;;;;;;3.01;64.44;94478.78;5004353;28;20082;-65
2022/04/06 01:59:58;;;;;;;13.13;5.00;;;;;;;2.60;64.67;94482.06;5003763;28;20145;-63
2022/04/06 02:02:26;;;;;;;9.65;4.40;;;;;;;2.84;65.03;94480.53;5002602;28;20598;-65
2022/04/06 02:04:51;;;;;;;12.15;4.75;;;;;;;3.13;63.93;94480.16;5004029;28;20078;-64
2022/04/06 02:07:17;;;;;;;7.88;4.28;;;;;;;3.27;63.63;94476.06;5003943;28;20108;-63
2022/04/06 02:09:43;;;;;;;16.63;4.72;;;;;;;3.40;63.83;94478.25;4991931;28;20152;-65
2022/04/06 02:12:09;;;;;;;9.45;4.18;;;;;;;3.19;63.73;94470.78;5001802;28;20070;-63
2022/04/06 02:14:34;;;;;;;10.10;5.10;;;;;;;2.70;65.31;94467.00;4987403;28;20169;-64
2022/04/06 02:17:00;;;;;;;13.07;5.82;;;;;;;3.33;63.50;94464.09;4990116;28;20086;-63
2022/04/06 02:19:26;;;;;;;12.18;5.15;;;;;;;3.77;63.00;94457.78;5012343;28;20109;-65
2022/04/06 02:21:51;;;;;;;10.40;5.15;;;;;;;4.16;61.07;94456.28;5025012;28;20088;-63
2022/04/06 02:24:18;;;;;;;8.07;4.13;;;;;;;3.63;62.76;94456.63;5022970;28;20077;-63
2022/04/06 02:26:44;;;;;;;9.40;4.03;;;;;;;3.57;63.22;94459.88;5014608;28;20101;-64
2022/04/06 02:29:09;;;;;;;7.25;4.25;;;;;;;3.65;63.24;94459.09;5026499;28;20495;-64
2022/04/06 02:31:35;;;;;;;10.73;5.70;;;;;;;3.70;62.69;94458.59;5041526;28;20143;-64
2022/04/06 02:34:00;;;;;;;11.25;5.03;;;;;;;3.01;64.09;94457.75;5039481;28;20731;-63
2022/04/06 02:36:25;;;;;;;8.52;4.10;;;;;;;2.81;63.76;94449.28;5042597;28;20077;-63
2022/04/06 02:38:51;;;;;;;9.82;4.10;;;;;;;2.99;64.20;94455.28;5021664;28;20097;-64
2022/04/06 02:41:16;;;;;;;9.98;4.55;;;;;;;2.53;64.19;94456.38;5024669;28;20105;-66
2022/04/06 02:43:42;;;;;;;10.15;4.93;;;;;;;2.08;64.58;94468.75;5039364;28;20097;-64
2022/04/06 02:46:07;;;;;;;7.03;3.65;;;;;;;2.67;64.17;94458.59;5031152;28;20709;-63
2022/04/06 02:48:33;;;;;;;7.95;3.85;;;;;;;2.62;63.63;94453.84;5018880;28;20092;-63
2022/04/06 02:50:58;;;;;;;7.60;3.80;;;;;;;2.44;63.45;94459.97;5022858;28;20113;-63
2022/04/06 02:53:23;;;;;;;8.10;3.60;;;;;;;2.70;63.14;94455.66;5025087;28;20094;-64
2022/04/06 02:55:49;;;;;;;8.10;3.58;;;;;;;2.37;62.89;94445.81;5034086;28;20110;-65
2022/04/06 02:58:15;;;;;;;6.85;3.30;;;;;;;2.30;63.42;94450.03;5017517;28;20098;-64
2022/04/06 03:00:40;;;;;;;9.98;3.45;;;;;;;2.11;64.04;94449.28;5017482;28;20190;-63
2022/04/06 03:03:06;;;;;;;9.05;3.55;;;;;;;2.82;61.40;94464.91;5026566;28;20109;-65
2022/04/06 03:05:31;;;;;;;7.85;3.20;;;;;;;3.21;60.18;94452.22;5011070;28;20082;-64
2022/04/06 03:07:57;;;;;;;9.80;3.05;;;;;;;3.08;59.57;94452.69;5032831;28;20661;-65
2022/04/06 03:10:22;;;;;;;7.50;3.30;;;;;;;4.16;57.43;94447.56;5025591;28;20110;-65
2022/04/06 03:12:47;;;;;;;8.40;3.20;;;;;;;3.74;57.87;94446.75;5012197;28;20098;-63
2022/04/06 03:15:14;;;;;;;8.65;3.85;;;;;;;3.50;59.14;94454.44;5014003;28;20118;-63
2022/04/06 03:17:40;;;;;;;7.03;3.15;;;;;;;3.93;57.05;94446.44;5021486;28;20288;-63
2022/04/06 03:20:06;;;;;;;5.82;3.45;;;;;;;3.14;58.82;94444.16;5030752;28;20071;-64
2022/04/06 03:22:32;;;;;;;8.23;3.28;;;;;;;3.23;59.88;94453.72;5006088;28;20102;-63
2022/04/06 03:24:57;;;;;;;8.05;3.30;;;;;;;3.12;59.92;94444.31;5001053;28;20313;-65
2022/04/06 03:27:23;;;;;;;7.85;3.20;;;;;;;3.48;58.96;94434.56;5021052;28;20110;-64
2022/04/06 03:29:48;;;;;;;8.05;2.97;;;;;;;3.08;59.80;94439.53;5019516;28;20122;-64
2022/04/06 03:32:14;;;;;;;8.07;3.30;;;;;;;2.95;59.68;94443.44;5036442;28;20085;-64
2022/04/06 03:34:39;;;;;;;8.43;3.15;;;;;;;2.93;60.84;94431.44;5028037;28;20104;-64
2022/04/06 03:37:05;;;;;;;8.63;3.22;;;;;;;3.11;60.03;94431.31;5026368;28;20078;-64
2022/04/06 03:39:30;;;;;;;12.70;3.88;;;;;;;3.27;57.99;94426.09;5026348;28;20567;-64
2022/04/06 03:41:56;;;;;;;9.95;2.72;;;;;;;2.77;60.22;94419.88;5036028;28;20074;-64
2022/04/06 03:44:21;;;;;;;9.98;3.47;;;;;;;2.92;58.78;94425.34;5021886;28;20084;-63
2022/04/06 03:46:46;;;;;;;9.32;3.15;;;;;;;3.08;59.31;94423.75;5032985;28;20094;-64
2022/04/06 03:49:12;;;;;;;7.45;2.97;;;;;;;2.94;58.98;94423.41;5037993;28;20105;-63
2022/04/06 03:51:37;;;;;;;6.97;3.40;;;;;;;2.23;61.21;94418.31;5033870;28;20109;-64
2022/04/06 03:54:03;;;;;;;7.38;3.60;;;;;;;1.95;62.09;94414.03;5045858;28;20116;-63
2022/04/06 03:56:29;;;;;;;6.82;3.08;;;;;;;2.80;59.73;94424.81;5046072;28;20088;-62
2022/04/06 03:58:54;;;;;;;7.78;3.50;;;;;;;1.73;61.68;94429.28;5045740;28;20196;-63
2022/04/06 04:01:19;;;;;;;8.18;3.25;;;;;;;2.18;60.57;94423.22;5026696;28;20101;-64
2022/04/06 04:03:45;;;;;;;9.00;3.13;;;;;;;2.65;60.23;94421.97;5045320;28;20101;-64
2022/04/06 04:06:10;;;;;;;6.50;2.90;;;;;;;2.47;60.61;94424.66;5045091;28;20241;-64
2022/04/06 04:08:36;;;;;;;8.77;2.97;;;;;;;2.56;60.82;94409.78;5027371;28;20085;-64
2022/04/06 04:11:01;;;;;;;5.30;2.70;;;;;;;2.44;59.47;94409.22;5038010;28;20214;-62
2022/04/06 04:13:26;;;;;;;6.85;3.00;;;;;;;1.99;60.92;94409.31;5037836;28;20496;-64
2022/04/06 04:15:52;;;;;;;3.20;2.17;;;;;;;2.01;61.65;94412.59;5014633;28;20112;-64
2022/04/06 04:18:17;;;;;;;6.10;2.63;;;;;;;1.88;62.01;94416.44;5041491;28;20304;-63
2022/04/06 04:20:45;;;;;;;6.93;3.20;;;;;;;1.49;63.04;94417.59;5045594;28;20446;-65
2022/04/06 04:23:11;;;;;;;7.78;3.10;;;;;;;1.48;62.67;94417.75;5043185;28;20121;-63
2022/04/06 04:25:37;;;;;;;5.07;2.60;;;;;;;2.02;61.50;94416.88;5044615;28;20100;-64
2022/04/06 04:28:02;;;;;;;6.13;2.78;;;;;;;1.57;62.44;94419.47;5044810;28;20594;-63
2022/04/06 04:30:28;;;;;;;7.82;2.78;;;;;;;1.47;61.85;94430.03;5044676;28;20104;-64
2022/04/06 04:32:53;;;;;;;4.70;2.33;;;;;;;1.93;61.25;94410.75;5045133;28;20085;-63
2022/04/06 04:35:19;;;;;;;4.15;2.60;;;;;;;1.80;61.17;94424.25;5043681;28;20113;-64
2022/04/06 04:37:44;;;;;;;9.52;3.20;;;;;;;1.88;60.89;94423.50;5035617;28;20099;-63
2022/04/06 04:40:09;;;;;;;5.43;2.65;;;;;;;1.56;62.23;94417.00;5001193;28;20684;-64
2022/04/06 04:42:35;;;;;;;6.15;2.97;;;;;;;1.66;61.45;94422.19;5012491;28;20558;-62
2022/04/06 04:45:01;;;;;;;4.93;2.35;;;;;;;1.71;62.05;94430.44;5024924;28;20082;-64
2022/04/06 04:47:26;;;;;;;4.60;2.33;;;;;;;1.48;61.33;94423.00;5023796;28;20482;-64
2022/04/06 04:49:51;;;;;;;6.97;3.10;;;;;;;1.02;63.39;94428.28;5019874;28;20082;-64
2022/04/06 04:52:17;;;;;;;2.50;2.13;;;;;;;1.62;61.77;94416.41;5015635;28;20078;-62
2022/04/06 04:54:42;;;;;;;7.50;3.25;;;;;;;1.30;61.47;94413.31;5024074;28;20566;-64
2022/04/06 04:57:08;;;;;;;4.65;1.88;;;;;;;1.84;61.32;94412.47;5019987;28;20530;-65
2022/04/06 04:59:33;;;;;;;7.72;2.60;;;;;;;2.03;60.08;94421.13;5023365;28;20113;-63
2022/04/06 05:01:58;;;;;;;5.65;2.40;;;;;;;2.28;59.81;94416.03;5015069;28;20140;-63
2022/04/06 05:04:24;;;;;;;3.83;2.20;;;;;;;2.19;58.16;94422.22;5024227;28;20582;-63
2022/04/06 05:06:49;;;;;;;5.45;2.45;;;;;;;1.28;61.31;94415.28;5019895;28;20112;-63
2022/04/06 05:09:15;;;;;;;6.18;2.50;;;;;;;2.74;57.82;94414.94;5015943;28;20093;-62
2022/04/06 05:11:40;;;;;;;7.93;2.42;;;;;;;2.47;57.73;94414.16;5023604;28;20113;-64
2022/04/06 05:14:06;;;;;;;5.97;2.35;;;;;;;2.96;57.54;94410.09;5018926;28;20513;-64
2022/04/06 05:16:32;;;;;;;8.45;2.75;;;;;;;2.47;57.39;94419.41;5024445;28;20085;-63
2022/04/06 05:18:58;;;;;;;5.50;2.15;;;;;;;2.34;57.35;94410.16;5023547;28;20114;-63
2022/04/06 05:21:23;;;;;;;6.97;2.55;;;;;;;2.58;56.32;94411.25;5023922;28;20335;-63
2022/04/06 05:23:49;;;;;;;5.15;1.85;;;;;;;2.44;57.46;94414.47;5023702;28;20148;-63
2022/04/06 05:26:14;;;;;;;6.28;2.22;;;;;;;3.16;54.40;94413.25;5023491;28;20102;-64
2022/04/06 05:28:40;;;;;;;4.32;1.70;;;;;;;2.44;56.29;94414.47;5023746;28;20523;-63
2022/04/06 05:31:05;;;;;;;4.53;1.75;;;;;;;2.51;56.31;94415.50;5023427;28;20790;-63
2022/04/06 05:33:30;;;;;;;5.75;2.40;;;;;;;2.22;55.18;94421.91;5023571;28;20117;-64
2022/04/06 05:35:56;;;;;;;6.47;1.88;;;;;;;2.86;55.38;94418.91;5023679;28;20110;-64
2022/04/06 05:38:21;;;;;;;2.35;1.73;;;;;;;3.53;53.89;94413.81;5012742;28;20687;-63
2022/04/06 05:40:46;;;;;;;16.50;8.95;;;;;;;2.64;55.86;94426.41;5004132;28;20578;-65
2022/04/06 05:43:12;;;;;;;9.02;4.50;;;;;;;3.19;53.50;94423.44;5003186;28;20360;-63
2022/04/06 05:45:38;;;;;;;17.48;10.50;;;;;;;3.34;53.43;94409.66;5001612;28;20089;-63
2022/04/06 05:48:04;;;;;;;18.60;11.88;;;;;;;3.13;54.86;94419.66;5003194;28;20553;-64
2022/04/06 05:50:30;;;;;;;5.97;3.05;;;;;;;2.78;53.78;94418.88;5001962;28;20106;-63
2022/04/06 05:52:55;;;;;;;6.72;2.20;;;;;;;3.04;54.92;94420.63;5003491;28;20419;-64
2022/04/06 05:55:21;;;;;;;4.45;2.10;;;;;;;3.52;54.05;94413.03;5002884;28;20571;-63
2022/04/06 05:57:46;;;;;;;5.18;1.85;;;;;;;3.82;53.31;94412.53;5003207;28;20421;-63
2022/04/06 06:00:13;;;;;;;5.53;2.40;;;;;;;3.85;52.97;94420.09;5003476;28;20093;-64
2022/04/06 06:02:38;;;;;;;6.57;2.13;;;;;;;3.77;53.24;94420.06;5003220;28;20189;-64
2022/04/06 06:05:04;;;;;;;4.72;1.90;;;;;;;3.03;54.50;94435.56;5003831;28;20113;-65
2022/04/06 06:07:29;;;;;;;4.35;1.80;;;;;;;3.12;54.01;94417.19;5002923;28;20133;-64
2022/04/06 06:09:55;;;;;;;3.17;2.00;;;;;;;3.06;54.32;94418.66;4993038;28;22777;-64
2022/04/06 06:12:20;;;;;;;6.68;2.22;;;;;;;2.78;55.80;94414.47;4999761;28;20270;-64
2022/04/06 06:14:46;;;;;;;4.05;1.83;;;;;;;2.76;56.52;94420.88;4993135;28;20118;-64
2022/04/06 06:17:11;;;;;;;5.72;2.15;;;;;;;2.68;55.34;94426.09;5002617;28;20070;-62
2022/04/06 06:19:36;;;;;;;7.47;2.10;;;;;;;2.57;54.68;94419.28;5021648;28;20558;-64
2022/04/06 06:22:02;;;;;;;4.28;2.08;;;;;;;2.65;55.22;94428.03;5017826;28;20110;-65
2022/04/06 06:24:27;;;;;;;2.90;1.58;;;;;;;3.24;54.58;94417.72;4993188;28;20835;-64
2022/04/06 06:26:53;;;;;;;8.45;2.10;;;;;;;2.07;56.79;94421.63;5012313;28;20108;-65
2022/04/06 06:29:19;;;;;;;2.25;1.58;;;;;;;2.44;55.80;94422.34;5021621;28;20122;-65
2022/04/06 06:31:44;;;;;;;2.58;1.70;;;;;;;2.97;54.52;94414.34;5021719;28;20761;-64
2022/04/06 06:34:11;;;;;;;6.70;2.15;;;;;;;2.53;55.70;94419.59;5012683;28;20272;-65
2022/04/06 06:36:37;;;;;;;5.30;1.70;;;;;;;3.09;54.75;94412.28;5009718;28;20461;-63
2022/04/06 06:39:02;;;;;;;4.70;1.60;;;;;;;2.73;54.96;94424.63;5018498;28;20109;-64
2022/04/06 06:41:29;;;;;;;3.83;1.67;;;;;;;2.41;55.67;94425.31;5013833;28;20547;-64
2022/04/06 06:43:56;;;;;;;4.72;2.10;;;;;;;1.41;58.52;94420.16;5006157;28;20113;-63
2022/04/06 06:46:21;;;;;;;4.22;1.40;;;;;;;2.77;55.90;94412.81;5006783;28;20526;-63
2022/04/06 06:48:48;;;;;;;5.95;1.77;;;;;;;3.22;54.36;94412.59;4994861;28;20613;-64
2022/04/06 06:51:13;;;;;;;3.70;1.90;;;;;;;2.88;54.33;94401.19;4982778;28;20468;-63
2022/04/06 06:53:39;;;;;;;3.97;1.42;;;;;;;3.22;52.95;94404.72;4993441;28;20090;-64
2022/04/06 06:56:05;;;;;;;3.83;1.60;;;;;;;3.07;53.00;94428.19;4987673;28;20098;-64
2022/04/06 06:58:30;;;;;;;3.97;1.70;;;;;;;3.10;54.05;94409.44;4990658;28;20564;-64
2022/04/06 07:00:55;;;;;;;4.55;2.60;;;;;;;2.95;54.06;94405.78;4992809;28;20397;-64
2022/04/06 07:03:21;;;;;;;6.22;2.20;;;;;;;2.60;54.77;94413.72;4987256;28;20110;-63
2022/04/06 07:05:47;;;;;;;7.50;2.53;;;;;;;2.36;54.54;94407.38;4986988;28;20078;-63
2022/04/06 07:08:13;;;;;;;6.45;2.28;;;;;;;3.23;53.66;94393.22;4992124;28;20173;-63
2022/04/06 07:10:38;;;;;;;9.40;4.88;;;;;;;2.63;52.02;94400.28;4983889;28;20113;-62
2022/04/06 07:13:04;;;;;;;3.25;2.08;;;;;;;2.75;54.63;94406.06;4983158;28;20161;-63
2022/04/06 07:15:29;;;;;;;41.92;29.27;;;;;;;2.87;52.45;94402.19;4986340;28;21083;-63
2022/04/06 07:17:57;;;;;;;6.78;2.40;;;;;;;2.86;55.02;94397.88;4995633;28;20098;-63
2022/04/06 07:20:24;;;;;;;12.73;7.38;;;;;;;2.10;55.76;94395.91;4997978;28;20412;-62
2022/04/06 07:22:50;;;;;;;7.40;3.25;;;;;;;2.51;54.63;94397.09;4993094;28;20746;-63
2022/04/06 07:25:16;;;;;;;5.47;2.33;;;;;;;2.63;54.77;94395.84;4997990;28;20303;-64
2022/04/06 07:27:42;;;;;;;4.82;2.13;;;;;;;2.80;52.98;94393.28;4990152;28;20106;-63
2022/04/06 07:30:08;;;;;;;4.38;2.33;;;;;;;3.20;52.75;94390.09;4986883;28;20110;-63
2022/04/06 07:32:34;;;;;;;4.47;1.95;;;;;;;2.98;53.82;94392.34;4997416;28;20571;-64
2022/04/06 07:34:59;;;;;;;7.05;1.75;;;;;;;3.00;52.72;94393.00;5017107;28;20120;-63
2022/04/06 07:37:25;;;;;;;3.42;1.67;;;;;;;2.61;55.01;94389.09;5023710;28;20330;-63
2022/04/06 07:39:50;;;;;;;3.70;1.80;;;;;;;2.80;54.04;94393.28;4995862;28;20102;-63
2022/04/06 07:42:16;;;;;;;5.32;1.60;;;;;;;3.03;53.66;94396.13;4977358;28;20099;-63
2022/04/06 07:44:41;;;;;;;3.22;1.85;;;;;;;2.53;54.18;94410.91;4980914;28;20079;-63
2022/04/06 07:47:06;;;;;;;4.97;2.00;;;;;;;2.46;54.27;94381.81;4994400;28;20106;-64
2022/04/06 07:49:32;;;;;;;11.98;4.45;;;;;;;2.10;56.17;94380.16;4992202;28;20518;-63
2022/04/06 07:51:57;;;;;;;7.45;3.22;;;;;;;2.48;54.64;94389.53;4991922;28;20510;-64
2022/04/06 07:54:23;;;;;;;5.57;2.00;;;;;;;2.41;54.61;94389.34;4989947;28;20588;-62
2022/04/06 07:56:48;;;;;;;3.53;1.60;;;;;;;2.49;55.52;94385.94;4985867;28;20090;-64
2022/04/06 07:59:13;;;;;;;4.70;1.88;;;;;;;2.39;54.27;94393.94;4986119;28;20111;-65
2022/04/06 08:01:39;;;;;;;5.63;2.30;;;;;;;2.35;54.59;94385.53;4989771;28;20109;-62
2022/04/06 08:04:04;;;;;;;4.90;2.10;;;;;;;2.26;55.78;94384.69;4996681;28;20090;-63
2022/04/06 08:06:30;;;;;;;4.65;2.03;;;;;;;2.53;54.50;94387.25;5001711;28;20102;-64
2022/04/06 08:08:55;;;;;;;4.20;1.77;;;;;;;2.43;55.00;94389.19;5020539;28;20172;-63
2022/04/06 08:11:21;;;;;;;6.07;1.88;;;;;;;2.62;54.31;94383.69;4992312;28;20156;-63
2022/04/06 08:13:47;;;;;;;4.25;1.55;;;;;;;3.22;53.02;94391.56;4984499;28;20101;-64
2022/04/06 08:16:13;;;;;;;3.85;1.80;;;;;;;2.60;52.90;94379.56;5006936;28;20181;-65
2022/04/06 08:18:38;;;;;;;7.43;1.70;;;;;;;2.92;52.51;94380.66;5009387;28;20185;-64
2022/04/06 08:21:05;;;;;;;8.25;1.80;;;;;;;3.22;52.31;94388.94;5015705;28;20449;-64
2022/04/06 08:23:31;;;;;;;6.82;2.00;;;;;;;2.88;51.97;94382.78;5015096;28;20128;-64
2022/04/06 08:25:56;;;;;;;3.35;1.52;;;;;;;3.71;50.92;94376.00;5009965;28;20099;-62
2022/04/06 08:28:22;;;;;;;3.58;1.60;;;;;;;3.81;50.48;94374.00;5016630;28;20638;-71
2022/04/06 08:30:47;;;;;;;5.57;1.88;;;;;;;3.60;51.13;94372.69;5007200;28;20115;-71
2022/04/06 08:33:13;;;;;;;3.58;1.70;;;;;;;3.90;48.91;94365.13;5007084;28;20590;-72
2022/04/06 08:35:39;;;;;;;4.18;1.75;;;;;;;3.65;50.33;94374.84;5019183;28;20658;-67
2022/04/06 08:38:04;;;;;;;6.18;2.25;;;;;;;4.10;49.69;94372.66;5007451;28;20143;-67
2022/04/06 08:40:33;;;;;;;11.73;1.75;;;;;;;4.47;48.90;94366.94;5011668;28;20177;-67
2022/04/06 08:42:58;;;;;;;8.57;2.20;;;;;;;3.65;50.35;94373.06;5011650;28;20160;-67
2022/04/06 08:45:24;;;;;;;2.72;1.65;;;;;;;3.42;51.25;94376.31;5011045;28;20090;-67
2022/04/06 08:47:51;;;;;;;4.97;2.17;;;;;;;3.35;51.60;94367.41;5009042;28;20106;-67
2022/04/06 08:50:17;;;;;;;2.30;1.50;;;;;;;2.93;52.27;94387.56;5020201;28;20390;-66
2022/04/06 08:52:43;;;;;;;3.70;1.80;;;;;;;3.06;52.65;94370.50;5016683;28;20124;-66
2022/04/06 08:55:08;;;;;;;4.82;1.70;;;;;;;3.21;53.30;94360.16;5017706;28;20603;-66
2022/04/06 08:57:34;;;;;;;4.80;1.63;;;;;;;3.74;51.22;94354.63;5017091;28;20078;-66
2022/04/06 08:59:59;;;;;;;7.30;2.15;;;;;;;4.38;49.87;94366.16;5013628;28;20456;-66
2022/04/06 09:02:25;;;;;;;3.67;1.90;;;;;;;3.29;51.31;94366.25;5018124;28;20105;-70
2022/04/06 09:04:51;;;;;;;3.72;1.55;;;;;;;4.17;49.35;94368.38;5020012;28;20078;-67
2022/04/06 09:07:18;;;;;;;4.40;1.83;;;;;;;3.22;52.42;94367.88;5017230;28;20411;-65
2022/04/06 09:09:43;;;;;;;6.07;1.75;;;;;;;4.26;51.19;94358.63;5016682;28;20085;-66
2022/04/06 09:12:09;;;;;;;4.18;1.58;;;;;;;4.15;48.98;94351.09;4997023;28;20528;-72
2022/04/06 09:14:34;;;;;;;5.07;1.50;;;;;;;3.93;48.81;94356.88;5019876;28;20110;-72
2022/04/06 09:17:04;;;;;;;3.47;1.55;;;;;;;4.58;48.68;94354.22;5024117;28;20458;-73
2022/04/06 09:19:29;;;;;;;8.75;3.95;;;;;;;5.19;47.12;94347.50;5021622;28;20098;-73
2022/04/06 09:21:55;;;;;;;5.03;2.47;;;;;;;5.01;47.00;94357.47;5020718;28;20621;-72
2022/04/06 09:24:21;;;;;;;9.43;4.72;;;;;;;4.79;47.48;94362.50;5021240;28;20108;-75
2022/04/06 09:27:03;;;;;;;1.77;1.30;;;;;;;3.95;48.86;94351.47;5021779;28;20174;-72
2022/04/06 09:29:28;;;;;;;3.05;1.80;;;;;;;3.92;50.25;94352.59;5021445;28;20204;-72
2022/04/06 09:31:53;;;;;;;5.78;2.25;;;;;;;4.69;47.67;94349.53;5023105;28;20163;-73
2022/04/06 09:34:22;;;;;;;3.55;1.80;;;;;;;5.48;46.51;94351.22;5017077;28;20118;-71
2022/04/06 09:36:50;;;;;;;2.88;1.65;;;;;;;5.99;44.48;94355.09;5003548;28;20420;-72
2022/04/06 09:39:16;;;;;;;4.47;2.20;;;;;;;4.67;47.45;94338.38;4991746;28;20114;-76
2022/04/06 09:41:58;;;;;;;7.93;2.35;;;;;;;5.26;46.65;94338.84;5001709;28;20129;-72
2022/04/06 09:50:22;;;;;;;5.05;1.98;;;;;;;4.58;47.44;94348.13;5024096;28;20557;-74
2022/04/06 09:52:48;;;;;;;9.18;4.53;;;;;;;4.97;47.72;94336.72;5013825;28;20073;-73
2022/04/06 09:55:15;;;;;;;9.48;2.20;;;;;;;4.09;47.75;94347.31;5011545;28;20539;-73
2022/04/06 09:57:50;;;;;;;2.60;1.38;;;;;;;4.30;47.81;94351.19;5003240;28;20090;-74
2022/04/06 10:00:16;;;;;;;5.88;2.25;;;;;;;3.54;50.00;94339.97;5022347;28;20101;-72
2022/04/06 10:02:44;;;;;;;6.32;1.75;;;;;;;4.22;49.40;94343.31;5017157;28;20102;-73
2022/04/06 10:05:11;;;;;;;8.57;4.22;;;;;;;5.17;47.91;94336.28;5021908;28;20090;-73
2022/04/06 10:07:37;;;;;;;3.28;1.75;;;;;;;4.52;48.73;94333.00;4985874;28;20107;-73
2022/04/06 10:10:03;;;;;;;8.02;3.67;;;;;;;5.53;45.76;94334.88;5002212;28;20097;-74
2022/04/06 10:12:28;;;;;;;3.72;2.03;;;;;;;5.83;45.43;94328.84;5020241;28;20121;-74
2022/04/06 10:14:54;;;;;;;4.32;1.73;;;;;;;5.97;46.10;94332.50;5033063;28;20113;-74
2022/04/06 10:17:20;;;;;;;5.05;1.73;;;;;;;5.99;45.75;94339.22;5036385;28;20206;-73
2022/04/06 10:19:48;;;;;;;4.20;1.58;;;;;;;6.43;43.39;94328.03;5040755;28;20105;-72
2022/04/06 10:22:29;;;;;;;4.95;2.28;;;;;;;4.91;45.42;94326.88;5011538;28;20164;-73
2022/04/06 10:25:05;;;;;;;4.30;2.28;;;;;;;5.53;45.89;94323.47;5001350;28;20078;-72
2022/04/06 10:27:42;;;;;;;2.70;1.85;;;;;;;6.11;44.91;94325.56;4977225;28;20555;-73
2022/04/06 10:30:23;;;;;;;5.15;2.28;;;;;;;5.93;44.36;94326.75;4985291;28;20102;-71
2022/04/06 10:32:53;;;;;;;5.30;1.90;;;;;;;6.22;43.99;94330.41;5002387;28;20078;-71
2022/04/06 10:35:28;;;;;;;4.43;1.92;;;;;;;6.47;43.67;94330.13;5001984;28;20110;-72
2022/04/06 10:37:56;;;;;;;5.60;2.15;;;;;;;4.56;47.28;94334.31;5001131;28;20412;-72
2022/04/06 10:40:22;;;;;;;5.55;2.40;;;;;;;4.24;48.01;94350.06;4995981;28;20387;-65
2022/04/06 10:42:48;;;;;;;6.70;2.22;;;;;;;4.62;47.45;94311.72;5012526;28;20567;-74
2022/04/06 10:45:29;;;;;;;6.55;2.10;;;;;;;4.60;46.97;94317.16;5042114;28;20097;-71
2022/04/06 10:48:18;;;;;;;4.95;1.92;;;;;;;4.50;48.18;94322.63;5038316;28;20105;-73
2022/04/06 10:50:47;;;;;;;5.47;2.03;;;;;;;5.21;46.81;94315.66;5005747;28;20487;-74
2022/04/06 10:53:19;;;;;;;5.43;1.95;;;;;;;4.96;47.26;94316.59;4991386;28;20085;-71
2022/04/06 10:56:11;;;;;;;7.78;2.00;;;;;;;4.33;47.11;94321.88;5015411;28;20175;-72
2022/04/06 10:58:55;;;;;;;5.95;1.83;;;;;;;5.40;46.07;94310.88;5030500;28;20105;-71
2022/04/06 11:01:29;;;;;;;7.40;2.10;;;;;;;4.25;48.15;94325.34;5019491;28;20125;-73
2022/04/06 11:03:59;;;;;;;5.50;2.15;;;;;;;4.05;47.85;94327.56;5034920;28;20094;-73
2022/04/06 11:06:52;;;;;;;6.15;1.88;;;;;;;3.53;48.87;94316.44;5032298;28;20117;-73
2022/04/06 11:12:17;;;;;;;5.68;2.80;;;;;;;3.87;50.16;94301.41;5012247;28;20160;-71
2022/04/06 11:15:04;;;;;;;4.32;1.77;;;;;;;4.40;48.25;94301.75;5041339;28;20109;-65
2022/04/06 11:17:37;;;;;;;6.13;1.85;;;;;;;4.69;47.93;94297.66;5021927;28;20078;-66
2022/04/06 11:20:15;;;;;;;7.68;2.10;;;;;;;3.89;48.51;94318.72;5029600;28;20110;-69
2022/04/06 11:22:45;;;;;;;2.45;1.80;;;;;;;4.90;46.91;94300.66;5035509;28;20164;-72
2022/04/06 11:25:12;;;;;;;4.97;1.90;;;;;;;4.45;47.48;94299.41;5039714;28;20233;-71
2022/04/06 11:27:38;;;;;;;4.63;2.10;;;;;;;4.56;46.59;94284.22;5035827;28;20135;-73
2022/04/06 11:30:17;;;;;;;6.05;2.00;;;;;;;5.22;46.85;94281.19;5041339;28;20069;-71
2022/04/06 11:32:49;;;;;;;3.40;1.73;;;;;;;5.33;46.06;94279.94;5041918;28;20123;-73
2022/04/06 11:35:16;;;;;;;5.50;2.20;;;;;;;5.51;45.28;94296.44;5040774;28;20476;-73
2022/04/06 11:37:43;;;;;;;4.38;1.60;;;;;;;5.45;45.37;94287.44;5036861;28;20560;-74
2022/04/06 11:40:09;;;;;;;4.93;1.77;;;;;;;5.61;45.03;94300.47;4995535;28;20078;-71
2022/04/06 11:42:35;;;;;;;7.22;1.77;;;;;;;5.76;45.15;94289.13;5007349;28;20363;-72
2022/04/06 11:45:00;;;;;;;9.27;1.90;;;;;;;5.82;45.17;94284.94;5023613;28;20074;-71
2022/04/06 11:47:36;;;;;;;4.70;2.03;;;;;;;5.14;45.66;94277.78;5011670;28;20105;-73
2022/04/06 11:50:06;;;;;;;6.95;2.17;;;;;;;5.25;46.77;94276.53;5017292;28;20120;-74